Wetterdaten: August 2012
Datum Temp Feuchte Luftdruck Regen Wind Richtung Sonnenschein UV Solar Windben
01.08.2012 20,4 C 69 % 1013,1 hPa 0,0 l/m 7,4 km/h SO 12,67 h 3,7 UV-I 463 W/m 16,1 km/h
02.08.2012 19,0 C 76 % 1012,2 hPa 0,0 l/m 0,3 km/h S 4,67 h 2,5 UV-I 272 W/m 5,6 km/h
03.08.2012 16,6 C 85 % 1015,1 hPa 0,6 l/m 1,8 km/h S-SW 7,00 h 2,6 UV-I 328 W/m 4,0 km/h
04.08.2012 17,3 C 85 % 1012,7 hPa 1,6 l/m 0,8 km/h S-SW 6,50 h 2,8 UV-I 338 W/m 4,4 km/h
05.08.2012 17,3 C 87 % 1008,8 hPa 0,2 l/m 0,0 km/h S 3,17 h 1,7 UV-I 198 W/m 0,0 km/h
06.08.2012 17,0 C 78 % 1010,9 hPa 10,2 l/m 1,3 km/h S-SW 3,42 h 2,3 UV-I 259 W/m 9,2 km/h
07.08.2012 15,2 C 80 % 1019,1 hPa 0,0 l/m 3,3 km/h S 3,08 h 2,6 UV-I 264 W/m 11,7 km/h
08.08.2012 16,0 C 82 % 1022,5 hPa 0,6 l/m 0,3 km/h W-NW 5,75 h 2,6 UV-I 318 W/m 2,4 km/h
09.08.2012 14,9 C 87 % 1024,0 hPa 0,0 l/m 0,0 km/h N-NW 2,83 h 2,1 UV-I 233 W/m 0,0 km/h
10.08.2012 13,4 C 85 % 1025,3 hPa 0,0 l/m 1,2 km/h N 3,92 h 2,1 UV-I 233 W/m 4,0 km/h
11.08.2012 12,8 C 87 % 1022,1 hPa 0,0 l/m 0,2 km/h O-SO 4,00 h 2,3 UV-I 252 W/m 1,2 km/h
12.08.2012 15,9 C 71 % 1016,7 hPa 0,0 l/m 1,4 km/h SO 10,67 h 3,0 UV-I 414 W/m 8,1 km/h
13.08.2012 18,4 C 62 % 1014,3 hPa 0,0 l/m 5,3 km/h SO 11,92 h 3,2 UV-I 436 W/m 18,1 km/h
14.08.2012 20,0 C 58 % 1013,9 hPa 0,0 l/m 2,7 km/h SO 10,25 h 3,0 UV-I 406 W/m 8,4 km/h
15.08.2012 21,5 C 56 % 1011,3 hPa 0,0 l/m 5,6 km/h SO 10,75 h 3,0 UV-I 397 W/m 22,1 km/h
16.08.2012 16,6 C 87 % 1017,8 hPa 11,6 l/m 0,5 km/h NW 6,25 h 2,8 UV-I 316 W/m 5,6 km/h
17.08.2012 19,9 C 70 % 1019,6 hPa 0,0 l/m 2,0 km/h S 7,83 h 3,0 UV-I 368 W/m 6,0 km/h
18.08.2012 22,0 C 68 % 1018,8 hPa 0,0 l/m 4,1 km/h S-SO 11,92 h 3,5 UV-I 416 W/m 8,9 km/h
19.08.2012 24,7 C 72 % 1016,0 hPa 0,0 l/m 5,3 km/h S 11,42 h 3,5 UV-I 414 W/m 7,3 km/h
20.08.2012 22,8 C 82 % 1017,4 hPa 0,2 l/m 1,5 km/h NW 6,83 h 2,7 UV-I 316 W/m 4,0 km/h
21.08.2012 19,8 C 91 % 1014,9 hPa 0,2 l/m 0,1 km/h SO 2,58 h 1,9 UV-I 211 W/m 2,4 km/h
22.08.2012 17,5 C 72 % 1015,5 hPa 0,2 l/m 1,5 km/h W-NW 7,92 h 2,7 UV-I 364 W/m 9,6 km/h
23.08.2012 14,6 C 77 % 1013,6 hPa 0,0 l/m 0,2 km/h S-SW 8,75 h 2,9 UV-I 379 W/m 2,8 km/h
24.08.2012 15,7 C 87 % 1006,5 hPa 4,0 l/m 0,6 km/h NW 4,33 h 2,3 UV-I 241 W/m 3,6 km/h
25.08.2012 17,5 C 76 % 1005,9 hPa 1,2 l/m 5,9 km/h S 3,17 h 2,2 UV-I 229 W/m 12,4 km/h
26.08.2012 14,6 C 91 % 1011,2 hPa 10,8 l/m 8,7 km/h S 0,67 h 1,0 UV-I 107 W/m 24,5 km/h
27.08.2012 15,7 C 77 % 1019,3 hPa 0,2 l/m 0,2 km/h NW 8,50 h 3,1 UV-I 379 W/m 2,0 km/h
28.08.2012 17,4 C 75 % 1016,0 hPa 0,0 l/m 3,2 km/h S 3,50 h 2,3 UV-I 231 W/m 7,6 km/h
29.08.2012 18,2 C 81 % 1015,7 hPa 0,0 l/m 0,5 km/h S-SO 6,50 h 2,5 UV-I 318 W/m 1,6 km/h
30.08.2012 15,6 C 89 % 1015,3 hPa 0,0 l/m 1,8 km/h NW 3,33 h 2,3 UV-I 221 W/m 5,2 km/h
31.08.2012 13,0 C 89 % 1018,4 hPa 1,2 l/m 1,1 km/h N-NW 3,17 h 2,0 UV-I 227 W/m 4,8 km/h
Min-Datum 10.08.12 19.08.12 25.08.12 14 Tage 01.08.12 - - - - 01.08.12
Min-Zeit 06:50 15:10 19:20 - 00:00 - - - - 00:00
Minimum 8,6 C 42 % 1005,2 hPa - 0,0 km/h - - - - 0,0 km/h
Max-Datum 19.08.12 04.08.12 10.08.12 16.08.12 26.08.12 - 01.08.12 04.08.12 04.08.12 26.08.12
Max-Zeit 15:30 06:45 10:15 03:10 09:45 - 19:35 13:15 13:05 12:25
Maximum 32,6 C 98 % 1026,4 hPa 11,6 l/m 27,7 km/h
S
- 12,58 h 7,5 UV-I 1078 W/m 46,7 km/h
S
Durchschnitt 17,5 C 78 % 1015,6 hPa #42,8 l/m 2,2 km/h S #197:15 h 2,6 UV-I 308 W/m 7,2 km/h

Durchschnitt Minimum Temp.12,5 C
Durchschnitt Maximum Temp.23,1 C